PWSweather.com
Personal Weather Stations
Station Observations
KMIEASTT1
Tawas Bay, East Tawas, MI 48730

Tawas BayEast Tawas, MI 48730

Lat: 44.28, Lon: -83.48

Elevation: 600

Station Type: Davis VantagePro

http://www.tawasbayweather.com

High Low Average
Temperature 18.9°F-7.3°C 8.7°F-12.9°C 13.8°F-10.1°C
Dew Point 10.1°F-12.2°C -0.3°F-17.9°C 4.1°F-15.5°C
Winds 9.0 mph 14.5 kmh 1.0 mph 1.6 kmh 4.0 mph W6.4 kmh W
Wind Gusts 13.0 mph20.9 kmh 3.0 mph4.8 kmh 7.0 mph11.3 kmh
Humidity 83% 48% 66%
Pressure 30.37 in1028.4 mb 30.19 in1022.4 mb -
Precipitation 0.00 in0.0 mm - -
Hour Temp Dew Point Humidity Winds Wind Gusts Pressure Precip Precip Rate Daily Precip Total
12:01 AM 16.1°F-8.8°C 6.4°F-14.2°C 65% 11.0 mph NW17.7 kmh NW 14.0 mph22.5 kmh 30.18 in1022.0 mb 0.00 in0.0 mm 0.00 in/hr0.0 mm/hr 0.00 in0.0 mm
12:15 AM 15.9°F-8.9°C 6.6°F-14.1°C 66% 9.0 mph NW14.5 kmh NW 13.0 mph20.9 kmh 30.19 in1022.4 mb 0.00 in0.0 mm 0.00 in/hr0.0 mm/hr 0.00 in0.0 mm
12:30 AM 15.3°F-9.3°C 6.0°F-14.4°C 66% 5.0 mph NW8.0 kmh NW 12.0 mph19.3 kmh 30.19 in1022.4 mb 0.00 in0.0 mm 0.00 in/hr0.0 mm/hr 0.00 in0.0 mm
12:45 AM 15.0°F-9.4°C 6.0°F-14.4°C 67% 5.0 mph NW8.0 kmh NW 10.0 mph16.1 kmh 30.19 in1022.4 mb 0.00 in0.0 mm 0.00 in/hr0.0 mm/hr 0.00 in0.0 mm
01:01 AM 14.7°F-9.6°C 5.8°F-14.6°C 67% 9.0 mph WNW14.5 kmh WNW 13.0 mph20.9 kmh 30.19 in1022.4 mb 0.00 in0.0 mm 0.00 in/hr0.0 mm/hr 0.00 in0.0 mm
01:15 AM 14.5°F-9.7°C 5.9°F-14.5°C 68% 5.0 mph NW8.0 kmh NW 11.0 mph17.7 kmh 30.20 in1022.7 mb 0.00 in0.0 mm 0.00 in/hr0.0 mm/hr 0.00 in0.0 mm
01:30 AM 14.1°F-9.9°C 5.5°F-14.7°C 68% 6.0 mph NW9.7 kmh NW 8.0 mph12.9 kmh 30.20 in1022.7 mb 0.00 in0.0 mm 0.00 in/hr0.0 mm/hr 0.00 in0.0 mm
01:45 AM 13.9°F-10.1°C 5.6°F-14.7°C 69% 1.0 mph NW1.6 kmh NW 8.0 mph12.9 kmh 30.20 in1022.7 mb 0.00 in0.0 mm 0.00 in/hr0.0 mm/hr 0.00 in0.0 mm
02:00 AM 13.6°F-10.2°C 5.0°F-15.0°C 68% 6.0 mph NW9.7 kmh NW 10.0 mph16.1 kmh 30.21 in1023.0 mb 0.00 in0.0 mm 0.00 in/hr0.0 mm/hr 0.00 in0.0 mm
02:15 AM 13.4°F-10.3°C 4.8°F-15.1°C 68% 4.0 mph N6.4 kmh N 8.0 mph12.9 kmh 30.21 in1023.0 mb 0.00 in0.0 mm 0.00 in/hr0.0 mm/hr 0.00 in0.0 mm
02:30 AM 13.3°F-10.4°C 4.7°F-15.2°C 68% 7.0 mph NNW11.3 kmh NNW 9.0 mph14.5 kmh 30.22 in1023.4 mb 0.00 in0.0 mm 0.00 in/hr0.0 mm/hr 0.00 in0.0 mm
02:45 AM 13.1°F-10.5°C 4.5°F-15.3°C 68% 2.0 mph NW3.2 kmh NW 11.0 mph17.7 kmh 30.22 in1023.4 mb 0.00 in0.0 mm 0.00 in/hr0.0 mm/hr 0.00 in0.0 mm
03:01 AM 12.9°F-10.6°C 4.4°F-15.3°C 68% 6.0 mph NNW9.7 kmh NNW 9.0 mph14.5 kmh 30.23 in1023.7 mb 0.00 in0.0 mm 0.00 in/hr0.0 mm/hr 0.00 in0.0 mm
03:15 AM 12.7°F-10.7°C 4.5°F-15.3°C 69% 4.0 mph NW6.4 kmh NW 7.0 mph11.3 kmh 30.23 in1023.7 mb 0.00 in0.0 mm 0.00 in/hr0.0 mm/hr 0.00 in0.0 mm
03:30 AM 12.6°F-10.8°C 4.4°F-15.3°C 69% 5.0 mph NW8.0 kmh NW 6.0 mph9.7 kmh 30.23 in1023.7 mb 0.00 in0.0 mm 0.00 in/hr0.0 mm/hr 0.00 in0.0 mm
03:45 AM 12.5°F-10.8°C 4.3°F-15.4°C 69% 1.0 mph NW1.6 kmh NW 4.0 mph6.4 kmh 30.23 in1023.7 mb 0.00 in0.0 mm 0.00 in/hr0.0 mm/hr 0.00 in0.0 mm
04:01 AM 12.1°F-11.1°C 4.2°F-15.4°C 70% 3.0 mph NW4.8 kmh NW 6.0 mph9.7 kmh 30.24 in1024.0 mb 0.00 in0.0 mm 0.00 in/hr0.0 mm/hr 0.00 in0.0 mm
04:15 AM 12.0°F-11.1°C 4.4°F-15.3°C 71% 3.0 mph NW4.8 kmh NW 7.0 mph11.3 kmh 30.24 in1024.0 mb 0.00 in0.0 mm 0.00 in/hr0.0 mm/hr 0.00 in0.0 mm
04:30 AM 11.9°F-11.2°C 4.3°F-15.4°C 71% 3.0 mph NW4.8 kmh NW 5.0 mph8.0 kmh 30.24 in1024.0 mb 0.00 in0.0 mm 0.00 in/hr0.0 mm/hr 0.00 in0.0 mm
04:45 AM 11.7°F-11.3°C 4.7°F-15.2°C 73% 3.0 mph NW4.8 kmh NW 6.0 mph9.7 kmh 30.25 in1024.4 mb 0.00 in0.0 mm 0.00 in/hr0.0 mm/hr 0.00 in0.0 mm
05:01 AM 11.6°F-11.3°C 4.9°F-15.1°C 74% 5.0 mph NW8.0 kmh NW 6.0 mph9.7 kmh 30.24 in1024.0 mb 0.00 in0.0 mm 0.00 in/hr0.0 mm/hr 0.00 in0.0 mm
05:15 AM 12.1°F-11.1°C 5.4°F-14.8°C 74% 2.0 mph W3.2 kmh W 7.0 mph11.3 kmh 30.24 in1024.0 mb 0.00 in0.0 mm 0.00 in/hr0.0 mm/hr 0.00 in0.0 mm
05:30 AM 12.1°F-11.1°C 6.0°F-14.4°C 76% 2.0 mph WNW3.2 kmh WNW 5.0 mph8.0 kmh 30.24 in1024.0 mb 0.00 in0.0 mm 0.00 in/hr0.0 mm/hr 0.00 in0.0 mm
05:45 AM 12.4°F-10.9°C 6.3°F-14.3°C 76% 4.0 mph W6.4 kmh W 7.0 mph11.3 kmh 30.24 in1024.0 mb 0.00 in0.0 mm 0.00 in/hr0.0 mm/hr 0.00 in0.0 mm
06:01 AM 12.4°F-10.9°C 6.6°F-14.1°C 77% 3.0 mph W4.8 kmh W 6.0 mph9.7 kmh 30.24 in1024.0 mb 0.00 in0.0 mm 0.00 in/hr0.0 mm/hr 0.00 in0.0 mm
06:15 AM 12.4°F-10.9°C 6.9°F-13.9°C 78% 3.0 mph WNW4.8 kmh WNW 9.0 mph14.5 kmh 30.24 in1024.0 mb 0.00 in0.0 mm 0.00 in/hr0.0 mm/hr 0.00 in0.0 mm
06:30 AM 12.4°F-10.9°C 7.1°F-13.8°C 79% 4.0 mph NW6.4 kmh NW 7.0 mph11.3 kmh 30.24 in1024.0 mb 0.00 in0.0 mm 0.00 in/hr0.0 mm/hr 0.00 in0.0 mm
06:45 AM 12.3°F-10.9°C 7.3°F-13.7°C 80% 2.0 mph WNW3.2 kmh WNW 6.0 mph9.7 kmh 30.25 in1024.4 mb 0.00 in0.0 mm 0.00 in/hr0.0 mm/hr 0.00 in0.0 mm
07:01 AM 12.1°F-11.1°C 7.4°F-13.7°C 81% 3.0 mph NW4.8 kmh NW 6.0 mph9.7 kmh 30.25 in1024.4 mb 0.00 in0.0 mm 0.00 in/hr0.0 mm/hr 0.00 in0.0 mm
07:15 AM 11.8°F-11.2°C 7.4°F-13.7°C 82% 3.0 mph WNW4.8 kmh WNW 5.0 mph8.0 kmh 30.25 in1024.4 mb 0.00 in0.0 mm 0.00 in/hr0.0 mm/hr 0.00 in0.0 mm
07:30 AM 11.5°F-11.4°C 7.1°F-13.8°C 82% 3.0 mph WNW4.8 kmh WNW 7.0 mph11.3 kmh 30.26 in1024.7 mb 0.00 in0.0 mm 0.00 in/hr0.0 mm/hr 0.00 in0.0 mm
07:45 AM 11.4°F-11.4°C 7.0°F-13.9°C 82% 3.0 mph NW4.8 kmh NW 6.0 mph9.7 kmh 30.25 in1024.4 mb 0.00 in0.0 mm 0.00 in/hr0.0 mm/hr 0.00 in0.0 mm
08:01 AM 11.2°F-11.6°C 6.8°F-14.0°C 82% 4.0 mph NW6.4 kmh NW 6.0 mph9.7 kmh 30.25 in1024.4 mb 0.00 in0.0 mm 0.00 in/hr0.0 mm/hr 0.00 in0.0 mm
08:15 AM 11.0°F-11.7°C 6.6°F-14.1°C 82% 3.0 mph NW4.8 kmh NW 6.0 mph9.7 kmh 30.25 in1024.4 mb 0.00 in0.0 mm 0.00 in/hr0.0 mm/hr 0.00 in0.0 mm
08:30 AM 10.9°F-11.7°C 6.8°F-14.0°C 83% 2.0 mph NW3.2 kmh NW 6.0 mph9.7 kmh 30.27 in1025.1 mb 0.00 in0.0 mm 0.00 in/hr0.0 mm/hr 0.00 in0.0 mm
08:45 AM 11.2°F-11.6°C 6.8°F-14.0°C 82% 2.0 mph NNW3.2 kmh NNW 9.0 mph14.5 kmh 30.28 in1025.4 mb 0.00 in0.0 mm 0.00 in/hr0.0 mm/hr 0.00 in0.0 mm
09:01 AM 10.0°F-12.2°C 4.5°F-15.3°C 78% 2.0 mph N3.2 kmh N 9.0 mph14.5 kmh 30.29 in1025.7 mb 0.00 in0.0 mm 0.00 in/hr0.0 mm/hr 0.00 in0.0 mm
09:15 AM 9.2°F-12.7°C 3.7°F-15.7°C 78% 3.0 mph NNW4.8 kmh NNW 11.0 mph17.7 kmh 30.30 in1026.1 mb 0.00 in0.0 mm 0.00 in/hr0.0 mm/hr 0.00 in0.0 mm
09:31 AM 8.7°F-12.9°C 3.0°F-16.1°C 77% 4.0 mph N6.4 kmh N 9.0 mph14.5 kmh 30.31 in1026.4 mb 0.00 in0.0 mm 0.00 in/hr0.0 mm/hr 0.00 in0.0 mm
09:45 AM 9.4°F-12.6°C 2.8°F-16.2°C 74% 3.0 mph N4.8 kmh N 8.0 mph12.9 kmh 30.32 in1026.8 mb 0.00 in0.0 mm 0.00 in/hr0.0 mm/hr 0.00 in0.0 mm
10:01 AM 9.7°F-12.4°C 2.2°F-16.6°C 71% 7.0 mph N11.3 kmh N 10.0 mph16.1 kmh 30.33 in1027.1 mb 0.00 in0.0 mm 0.00 in/hr0.0 mm/hr 0.00 in0.0 mm
10:15 AM 10.1°F-12.2°C 1.3°F-17.1°C 67% 6.0 mph NW9.7 kmh NW 7.0 mph11.3 kmh 30.34 in1027.4 mb 0.00 in0.0 mm 0.00 in/hr0.0 mm/hr 0.00 in0.0 mm
10:30 AM 10.1°F-12.2°C 0.0°F-17.8°C 63% 6.0 mph NNW9.7 kmh NNW 9.0 mph14.5 kmh 30.35 in1027.8 mb 0.00 in0.0 mm 0.00 in/hr0.0 mm/hr 0.00 in0.0 mm
10:45 AM 10.1°F-12.2°C -0.3°F-17.9°C 62% 4.0 mph N6.4 kmh N 12.0 mph19.3 kmh 30.35 in1027.8 mb 0.00 in0.0 mm 0.00 in/hr0.0 mm/hr 0.00 in0.0 mm
11:01 AM 10.1°F-12.2°C 0.4°F-17.6°C 64% 5.0 mph N8.0 kmh N 8.0 mph12.9 kmh 30.36 in1028.1 mb 0.00 in0.0 mm 0.00 in/hr0.0 mm/hr 0.00 in0.0 mm
11:15 AM 10.3°F-12.1°C 0.2°F-17.7°C 63% 6.0 mph N9.7 kmh N 11.0 mph17.7 kmh 30.36 in1028.1 mb 0.00 in0.0 mm 0.00 in/hr0.0 mm/hr 0.00 in0.0 mm
11:30 AM 10.9°F-11.7°C 0.8°F-17.3°C 63% 4.0 mph NNW6.4 kmh NNW 8.0 mph12.9 kmh 30.36 in1028.1 mb 0.00 in0.0 mm 0.00 in/hr0.0 mm/hr 0.00 in0.0 mm
11:45 AM 11.7°F-11.3°C 1.6°F-16.9°C 63% 2.0 mph NW3.2 kmh NW 7.0 mph11.3 kmh 30.37 in1028.4 mb 0.00 in0.0 mm 0.00 in/hr0.0 mm/hr 0.00 in0.0 mm
12:01 PM 12.0°F-11.1°C 0.4°F-17.6°C 59% 2.0 mph NNW3.2 kmh NNW 8.0 mph12.9 kmh 30.37 in1028.4 mb 0.00 in0.0 mm 0.00 in/hr0.0 mm/hr 0.00 in0.0 mm
12:15 PM 12.3°F-10.9°C 0.7°F-17.4°C 59% 7.0 mph NW11.3 kmh NW 7.0 mph11.3 kmh 30.36 in1028.1 mb 0.00 in0.0 mm 0.00 in/hr0.0 mm/hr 0.00 in0.0 mm
12:31 PM 13.0°F-10.6°C 0.6°F-17.4°C 57% 4.0 mph N6.4 kmh N 9.0 mph14.5 kmh 30.36 in1028.1 mb 0.00 in0.0 mm 0.00 in/hr0.0 mm/hr 0.00 in0.0 mm
12:45 PM 13.7°F-10.2°C 1.3°F-17.1°C 57% 5.0 mph NW8.0 kmh NW 9.0 mph14.5 kmh 30.36 in1028.1 mb 0.00 in0.0 mm 0.00 in/hr0.0 mm/hr 0.00 in0.0 mm
01:01 PM 14.7°F-9.6°C 2.2°F-16.6°C 57% 3.0 mph N4.8 kmh N 8.0 mph12.9 kmh 30.36 in1028.1 mb 0.00 in0.0 mm 0.00 in/hr0.0 mm/hr 0.00 in0.0 mm
01:15 PM 15.3°F-9.3°C 1.7°F-16.8°C 54% 3.0 mph NNW4.8 kmh NNW 5.0 mph8.0 kmh 30.35 in1027.8 mb 0.00 in0.0 mm 0.00 in/hr0.0 mm/hr 0.00 in0.0 mm
01:30 PM 15.5°F-9.2°C 2.2°F-16.6°C 55% 3.0 mph NW4.8 kmh NW 9.0 mph14.5 kmh 30.35 in1027.8 mb 0.00 in0.0 mm 0.00 in/hr0.0 mm/hr 0.00 in0.0 mm
01:45 PM 16.7°F-8.5°C 3.7°F-15.7°C 56% 1.0 mph N1.6 kmh N 4.0 mph6.4 kmh 30.34 in1027.4 mb 0.00 in0.0 mm 0.00 in/hr0.0 mm/hr 0.00 in0.0 mm
02:01 PM 16.6°F-8.6°C 2.9°F-16.2°C 54% 6.0 mph NW9.7 kmh NW 6.0 mph9.7 kmh 30.33 in1027.1 mb 0.00 in0.0 mm 0.00 in/hr0.0 mm/hr 0.00 in0.0 mm
02:15 PM 16.8°F-8.4°C 1.8°F-16.8°C 51% 4.0 mph NW6.4 kmh NW 6.0 mph9.7 kmh 30.33 in1027.1 mb 0.00 in0.0 mm 0.00 in/hr0.0 mm/hr 0.00 in0.0 mm
02:30 PM 16.8°F-8.4°C 1.8°F-16.8°C 51% 3.0 mph W4.8 kmh W 7.0 mph11.3 kmh 30.32 in1026.8 mb 0.00 in0.0 mm 0.00 in/hr0.0 mm/hr 0.00 in0.0 mm
02:45 PM 17.4°F-8.1°C 5.2°F-14.9°C 58% 2.0 mph ESE3.2 kmh ESE 4.0 mph6.4 kmh 30.32 in1026.8 mb 0.00 in0.0 mm 0.00 in/hr0.0 mm/hr 0.00 in0.0 mm
03:01 PM 18.2°F-7.7°C 2.7°F-16.3°C 50% 1.0 mph ESE1.6 kmh ESE 3.0 mph4.8 kmh 30.31 in1026.4 mb 0.00 in0.0 mm 0.00 in/hr0.0 mm/hr 0.00 in0.0 mm
03:15 PM 16.9°F-8.4°C 0.6°F-17.4°C 48% 3.0 mph WSW4.8 kmh WSW 5.0 mph8.0 kmh 30.31 in1026.4 mb 0.00 in0.0 mm 0.00 in/hr0.0 mm/hr 0.00 in0.0 mm
03:30 PM 17.3°F-8.2°C 2.3°F-16.5°C 51% 1.0 mph SW1.6 kmh SW 4.0 mph6.4 kmh 30.31 in1026.4 mb 0.00 in0.0 mm 0.00 in/hr0.0 mm/hr 0.00 in0.0 mm
03:45 PM 17.9°F-7.8°C 2.0°F-16.7°C 49% 4.0 mph W6.4 kmh W 5.0 mph8.0 kmh 30.31 in1026.4 mb 0.00 in0.0 mm 0.00 in/hr0.0 mm/hr 0.00 in0.0 mm
04:01 PM 17.4°F-8.1°C 2.0°F-16.7°C 50% 4.0 mph WSW6.4 kmh WSW 7.0 mph11.3 kmh 30.31 in1026.4 mb 0.00 in0.0 mm 0.00 in/hr0.0 mm/hr 0.00 in0.0 mm
04:15 PM 17.4°F-8.1°C 2.4°F-16.4°C 51% 6.0 mph WSW9.7 kmh WSW 9.0 mph14.5 kmh 30.31 in1026.4 mb 0.00 in0.0 mm 0.00 in/hr0.0 mm/hr 0.00 in0.0 mm
04:30 PM 17.2°F-8.2°C 3.8°F-15.7°C 55% 4.0 mph SW6.4 kmh SW 7.0 mph11.3 kmh 30.31 in1026.4 mb 0.00 in0.0 mm 0.00 in/hr0.0 mm/hr 0.00 in0.0 mm
04:45 PM 17.0°F-8.3°C 2.4°F-16.4°C 52% 3.0 mph NW4.8 kmh NW 6.0 mph9.7 kmh 30.31 in1026.4 mb 0.00 in0.0 mm 0.00 in/hr0.0 mm/hr 0.00 in0.0 mm
05:01 PM 17.4°F-8.1°C 4.0°F-15.6°C 55% 6.0 mph WSW9.7 kmh WSW 7.0 mph11.3 kmh 30.31 in1026.4 mb 0.00 in0.0 mm 0.00 in/hr0.0 mm/hr 0.00 in0.0 mm
05:15 PM 17.3°F-8.2°C 3.5°F-15.8°C 54% 6.0 mph W9.7 kmh W 8.0 mph12.9 kmh 30.31 in1026.4 mb 0.00 in0.0 mm 0.00 in/hr0.0 mm/hr 0.00 in0.0 mm
05:30 PM 17.2°F-8.2°C 2.6°F-16.3°C 52% 5.0 mph W8.0 kmh W 5.0 mph8.0 kmh 30.30 in1026.1 mb 0.00 in0.0 mm 0.00 in/hr0.0 mm/hr 0.00 in0.0 mm
05:45 PM 17.3°F-8.2°C 3.9°F-15.6°C 55% 2.0 mph SW3.2 kmh SW 6.0 mph9.7 kmh 30.30 in1026.1 mb 0.00 in0.0 mm 0.00 in/hr0.0 mm/hr 0.00 in0.0 mm
06:01 PM 17.4°F-8.1°C 4.0°F-15.6°C 55% 3.0 mph SW4.8 kmh SW 7.0 mph11.3 kmh 30.30 in1026.1 mb 0.00 in0.0 mm 0.00 in/hr0.0 mm/hr 0.00 in0.0 mm
06:15 PM 17.6°F-8.0°C 5.7°F-14.6°C 59% 3.0 mph WSW4.8 kmh WSW 8.0 mph12.9 kmh 30.29 in1025.7 mb 0.00 in0.0 mm 0.00 in/hr0.0 mm/hr 0.00 in0.0 mm
06:31 PM 17.6°F-8.0°C 5.4°F-14.8°C 58% 5.0 mph SW8.0 kmh SW 7.0 mph11.3 kmh 30.28 in1025.4 mb 0.00 in0.0 mm 0.00 in/hr0.0 mm/hr 0.00 in0.0 mm
06:45 PM 17.7°F-7.9°C 6.6°F-14.1°C 61% 5.0 mph SW8.0 kmh SW 6.0 mph9.7 kmh 30.27 in1025.1 mb 0.00 in0.0 mm 0.00 in/hr0.0 mm/hr 0.00 in0.0 mm
07:01 PM 18.2°F-7.7°C 7.4°F-13.7°C 62% 5.0 mph SW8.0 kmh SW 9.0 mph14.5 kmh 30.27 in1025.1 mb 0.00 in0.0 mm 0.00 in/hr0.0 mm/hr 0.00 in0.0 mm
07:15 PM 18.5°F-7.5°C 10.0°F-12.2°C 69% 9.0 mph SSW14.5 kmh SSW 12.0 mph19.3 kmh 30.26 in1024.7 mb 0.00 in0.0 mm 0.00 in/hr0.0 mm/hr 0.00 in0.0 mm
07:31 PM 18.9°F-7.3°C 10.1°F-12.2°C 68% 8.0 mph SSW12.9 kmh SSW 12.0 mph19.3 kmh 30.26 in1024.7 mb 0.00 in0.0 mm 0.00 in/hr0.0 mm/hr 0.00 in0.0 mm
07:45 PM 19.1°F-7.2°C 11.6°F-11.3°C 72% 10.0 mph SSW16.1 kmh SSW 13.0 mph20.9 kmh 30.25 in1024.4 mb 0.00 in0.0 mm 0.00 in/hr0.0 mm/hr 0.00 in0.0 mm
08:01 PM 19.8°F-6.8°C 12.6°F-10.8°C 73% 11.0 mph SSW17.7 kmh SSW 14.0 mph22.5 kmh 30.25 in1024.4 mb 0.00 in0.0 mm 0.00 in/hr0.0 mm/hr 0.00 in0.0 mm
08:15 PM 20.3°F-6.5°C 12.7°F-10.7°C 72% 9.0 mph S14.5 kmh S 16.0 mph25.7 kmh 30.25 in1024.4 mb 0.00 in0.0 mm 0.00 in/hr0.0 mm/hr 0.00 in0.0 mm
08:30 PM 20.7°F-6.3°C 12.2°F-11.0°C 69% 11.0 mph SSW17.7 kmh SSW 18.0 mph29.0 kmh 30.23 in1023.7 mb 0.00 in0.0 mm 0.00 in/hr0.0 mm/hr 0.00 in0.0 mm
08:45 PM 20.7°F-6.3°C 14.4°F-9.8°C 76% 12.0 mph S19.3 kmh S 16.0 mph25.7 kmh 30.22 in1023.4 mb 0.00 in0.0 mm 0.00 in/hr0.0 mm/hr 0.00 in0.0 mm
09:01 PM 20.8°F-6.2°C 14.4°F-9.8°C 76% 9.0 mph S14.5 kmh S 15.0 mph24.1 kmh 30.22 in1023.4 mb 0.00 in0.0 mm 0.00 in/hr0.0 mm/hr 0.00 in0.0 mm
09:15 PM 21.1°F-6.1°C 15.0°F-9.4°C 77% 8.0 mph S12.9 kmh S 18.0 mph29.0 kmh 30.21 in1023.0 mb 0.00 in0.0 mm 0.00 in/hr0.0 mm/hr 0.00 in0.0 mm
09:30 PM 21.5°F-5.8°C 16.0°F-8.9°C 79% 12.0 mph S19.3 kmh S 16.0 mph25.7 kmh 30.21 in1023.0 mb 0.00 in0.0 mm 0.00 in/hr0.0 mm/hr 0.00 in0.0 mm
09:45 PM 21.6°F-5.8°C 16.4°F-8.7°C 80% 10.0 mph S16.1 kmh S 16.0 mph25.7 kmh 30.21 in1023.0 mb 0.00 in0.0 mm 0.00 in/hr0.0 mm/hr 0.00 in0.0 mm
10:01 PM 21.9°F-5.6°C 17.0°F-8.3°C 81% 11.0 mph SSW17.7 kmh SSW 15.0 mph24.1 kmh 30.22 in1023.4 mb 0.00 in0.0 mm 0.00 in/hr0.0 mm/hr 0.00 in0.0 mm
10:15 PM 22.3°F-5.4°C 17.7°F-7.9°C 82% 15.0 mph S24.1 kmh S 16.0 mph25.7 kmh 30.20 in1022.7 mb 0.00 in0.0 mm 0.00 in/hr0.0 mm/hr 0.00 in0.0 mm
10:31 PM 22.7°F-5.2°C 17.5°F-8.1°C 80% 15.0 mph S24.1 kmh S 17.0 mph27.4 kmh 30.19 in1022.4 mb 0.00 in0.0 mm 0.00 in/hr0.0 mm/hr 0.00 in0.0 mm
10:45 PM 22.9°F-5.1°C 18.2°F-7.7°C 82% 18.0 mph S29.0 kmh S 19.0 mph30.6 kmh 30.19 in1022.4 mb 0.00 in0.0 mm 0.00 in/hr0.0 mm/hr 0.00 in0.0 mm
11:01 PM 23.0°F-5.0°C 18.1°F-7.7°C 81% 13.0 mph S20.9 kmh S 20.0 mph32.2 kmh 30.18 in1022.0 mb 0.00 in0.0 mm 0.00 in/hr0.0 mm/hr 0.00 in0.0 mm
11:15 PM 23.4°F-4.8°C 18.7°F-7.4°C 82% 13.0 mph SSW20.9 kmh SSW 20.0 mph32.2 kmh 30.17 in1021.7 mb 0.00 in0.0 mm 0.00 in/hr0.0 mm/hr 0.00 in0.0 mm
11:30 PM 23.5°F-4.7°C 18.8°F-7.3°C 82% 13.0 mph SSW20.9 kmh SSW 18.0 mph29.0 kmh 30.17 in1021.7 mb 0.00 in0.0 mm 0.00 in/hr0.0 mm/hr 0.00 in0.0 mm
11:45 PM 23.9°F-4.5°C 18.9°F-7.3°C 81% 10.0 mph SSW16.1 kmh SSW 21.0 mph33.8 kmh 30.17 in1021.7 mb 0.00 in0.0 mm 0.00 in/hr0.0 mm/hr 0.00 in0.0 mm